Time;durP1;ratioP1;P1;durP2;ratioP2;P2;SDS_P1;SDS_P2;PMS_P1;PMS_P2;Temp;Humidity;BMP_temperature;BMP_pressure;BME280_temperature;BME280_humidity;BME280_pressure;Samples;Min_cycle;Max_cycle;Signal;HPM_P1;HPM_P2
2022/08/23 00:02:19;;;;;;;15.77;13.38;;;;;;;;;;5123410;27;20021;-79
2022/08/23 00:04:46;;;;;;;19.65;15.77;;;;;;;;;;5081908;28;20017;-78
2022/08/23 00:07:13;;;;;;;18.08;15.07;;;;;;;;;;5110838;27;20356;-78
2022/08/23 00:09:39;;;;;;;16.00;13.68;;;;;;;;;;5080307;28;20012;-78
2022/08/23 00:12:16;;;;;;;14.60;13.10;;;;;;;;;;5092455;28;20051;-79
2022/08/23 00:14:44;;;;;;;13.40;11.50;;;;;;;;;;5093765;28;20024;-77
2022/08/23 00:17:10;;;;;;;18.35;13.18;;;;;;;;;;5091248;28;20055;-79
2022/08/23 00:19:38;;;;;;;19.45;13.50;;;;;;;;;;5122393;27;20020;-78
2022/08/23 00:22:05;;;;;;;18.67;13.15;;;;;;;;;;5126300;27;20052;-80
2022/08/23 00:24:31;;;;;;;16.40;12.90;;;;;;;;;;5133085;27;20020;-77
2022/08/23 00:27:11;;;;;;;15.68;13.82;;;;;;;;;;5092127;28;20115;-79
2022/08/23 00:29:39;;;;;;;19.65;12.57;;;;;;;;;;5091560;28;20024;-76
2022/08/23 00:32:06;;;;;;;15.55;12.35;;;;;;;;;;5125483;27;20028;-77
2022/08/23 00:34:33;;;;;;;17.75;13.77;;;;;;;;;;5118220;27;20017;-78
2022/08/23 00:36:59;;;;;;;15.48;13.88;;;;;;;;;;5084709;28;20379;-79
2022/08/23 00:39:25;;;;;;;17.83;12.70;;;;;;;;;;5125492;27;20126;-78
2022/08/23 00:41:51;;;;;;;16.63;11.45;;;;;;;;;;5125884;27;20073;-80
2022/08/23 00:50:17;;;;;;;21.05;12.93;;;;;;;;;;5081191;28;20081;-77
2022/08/23 00:52:47;;;;;;;14.35;12.45;;;;;;;;;;5091159;28;20063;-76
2022/08/23 00:55:15;;;;;;;16.73;13.95;;;;;;;;;;5125104;27;20418;-78
2022/08/23 00:57:41;;;;;;;13.40;12.00;;;;;;;;;;5125445;27;20115;-77
2022/08/23 01:00:08;;;;;;;20.20;14.85;;;;;;;;;;5122293;27;20392;-77
2022/08/23 01:02:35;;;;;;;16.70;13.73;;;;;;;;;;5076922;28;20070;-77
2022/08/23 01:05:01;;;;;;;17.35;15.13;;;;;;;;;;5091164;28;20020;-78
2022/08/23 01:07:27;;;;;;;18.88;16.00;;;;;;;;;;5091230;28;20111;-76
2022/08/23 01:09:56;;;;;;;18.67;16.75;;;;;;;;;;5110570;27;20419;-77
2022/08/23 01:12:24;;;;;;;21.90;18.08;;;;;;;;;;5118063;27;20062;-77
2022/08/23 01:15:09;;;;;;;24.75;19.40;;;;;;;;;;5115212;27;20059;-77
2022/08/23 01:17:41;;;;;;;31.25;23.20;;;;;;;;;;5123646;27;20027;-78
2022/08/23 01:20:10;;;;;;;23.38;20.85;;;;;;;;;;5090914;28;20099;-77
2022/08/23 01:22:52;;;;;;;24.25;19.95;;;;;;;;;;5090194;28;20514;-76
2022/08/23 01:25:20;;;;;;;25.00;22.35;;;;;;;;;;5097712;28;20035;-78
2022/08/23 01:27:46;;;;;;;25.77;22.77;;;;;;;;;;5139151;27;20034;-78
2022/08/23 01:30:13;;;;;;;28.13;21.35;;;;;;;;;;5090717;28;20031;-79
2022/08/23 01:32:45;;;;;;;27.50;23.63;;;;;;;;;;5090513;28;20131;-77
2022/08/23 01:35:11;;;;;;;28.20;22.92;;;;;;;;;;5090729;28;20111;-80
2022/08/23 01:37:37;;;;;;;31.05;24.52;;;;;;;;;;5090934;28;20566;-77
2022/08/23 01:40:04;;;;;;;24.73;21.90;;;;;;;;;;5125107;27;20111;-78
2022/08/23 01:42:30;;;;;;;27.08;20.17;;;;;;;;;;5125260;28;20024;-79
2022/08/23 01:44:57;;;;;;;26.60;20.92;;;;;;;;;;5091232;28;20020;-79
2022/08/23 01:47:23;;;;;;;23.50;20.77;;;;;;;;;;5091192;28;20120;-79
2022/08/23 01:49:49;;;;;;;24.17;21.67;;;;;;;;;;5117937;28;20024;-79
2022/08/23 01:52:16;;;;;;;25.48;21.75;;;;;;;;;;5118508;28;20032;-80
2022/08/23 01:54:42;;;;;;;20.33;16.95;;;;;;;;;;5092163;28;20012;-80
2022/08/23 01:57:09;;;;;;;20.38;17.20;;;;;;;;;;5092569;28;20016;-80
2022/08/23 01:59:35;;;;;;;21.40;17.77;;;;;;;;;;5114063;27;20016;-82
2022/08/23 02:02:02;;;;;;;22.45;20.15;;;;;;;;;;5089979;28;20093;-81
2022/08/23 02:04:28;;;;;;;24.73;20.85;;;;;;;;;;5121196;27;20035;-80
2022/08/23 02:06:54;;;;;;;36.65;24.70;;;;;;;;;;5128981;27;20099;-79
2022/08/23 02:09:20;;;;;;;25.15;21.33;;;;;;;;;;5128913;27;20027;-79
2022/08/23 02:11:47;;;;;;;27.77;23.27;;;;;;;;;;5126300;27;20123;-78
2022/08/23 02:14:14;;;;;;;28.58;24.90;;;;;;;;;;5108028;27;20497;-78
2022/08/23 02:16:43;;;;;;;25.35;22.65;;;;;;;;;;5085258;28;20097;-77
2022/08/23 02:19:10;;;;;;;23.88;20.75;;;;;;;;;;5095337;28;20020;-77
2022/08/23 02:21:36;;;;;;;28.02;22.38;;;;;;;;;;5128419;27;20558;-77
2022/08/23 02:24:04;;;;;;;28.27;24.80;;;;;;;;;;5097144;28;20024;-81
2022/08/23 02:26:30;;;;;;;26.92;24.00;;;;;;;;;;5131645;27;20024;-78
2022/08/23 02:28:56;;;;;;;29.90;25.27;;;;;;;;;;5108564;28;20490;-79
2022/08/23 02:31:22;;;;;;;30.30;27.15;;;;;;;;;;5084451;28;20029;-78
2022/08/23 02:33:48;;;;;;;30.67;27.33;;;;;;;;;;5089133;28;20052;-78
2022/08/23 02:36:15;;;;;;;28.77;25.77;;;;;;;;;;5135625;27;20020;-80
2022/08/23 02:38:41;;;;;;;28.88;25.77;;;;;;;;;;5100534;28;20067;-78
2022/08/23 02:41:07;;;;;;;35.72;26.48;;;;;;;;;;5127722;27;20489;-77
2022/08/23 02:43:36;;;;;;;28.98;25.83;;;;;;;;;;5127707;27;20032;-78
2022/08/23 02:46:02;;;;;;;37.67;27.13;;;;;;;;;;5128267;27;20038;-78
2022/08/23 02:48:31;;;;;;;30.73;27.42;;;;;;;;;;5127419;27;20055;-77
2022/08/23 02:51:07;;;;;;;31.35;28.02;;;;;;;;;;5093486;28;20023;-78
2022/08/23 02:53:34;;;;;;;30.52;27.30;;;;;;;;;;5127633;27;20050;-78
2022/08/23 02:56:01;;;;;;;32.20;28.25;;;;;;;;;;5093534;28;20016;-78
2022/08/23 02:58:27;;;;;;;30.27;27.05;;;;;;;;;;5119476;27;20048;-77
2022/08/23 03:00:54;;;;;;;31.58;28.15;;;;;;;;;;5087572;28;20089;-77
2022/08/23 03:03:20;;;;;;;32.95;29.50;;;;;;;;;;5122377;27;20040;-78
2022/08/23 03:05:47;;;;;;;34.38;29.48;;;;;;;;;;5087234;28;20027;-77
2022/08/23 03:08:13;;;;;;;33.92;30.30;;;;;;;;;;5094384;28;20107;-78
2022/08/23 03:10:43;;;;;;;36.47;32.53;;;;;;;;;;5127762;27;20035;-77
2022/08/23 03:13:09;;;;;;;35.67;31.70;;;;;;;;;;5092897;28;20036;-81
2022/08/23 03:15:35;;;;;;;37.20;31.63;;;;;;;;;;5126908;27;20123;-79
2022/08/23 03:18:01;;;;;;;33.83;30.02;;;;;;;;;;5118986;27;20020;-77
2022/08/23 03:20:27;;;;;;;34.17;30.77;;;;;;;;;;5106754;28;20017;-79
2022/08/23 03:22:53;;;;;;;33.80;30.27;;;;;;;;;;5120222;27;20098;-78
2022/08/23 03:25:19;;;;;;;32.60;29.08;;;;;;;;;;5091140;28;20020;-77
2022/08/23 03:27:45;;;;;;;34.17;30.73;;;;;;;;;;5094419;28;20020;-79
2022/08/23 03:30:12;;;;;;;32.70;29.20;;;;;;;;;;5093014;28;20189;-79
2022/08/23 03:32:38;;;;;;;36.30;32.67;;;;;;;;;;5127481;27;20107;-79
2022/08/23 03:35:05;;;;;;;34.58;30.85;;;;;;;;;;5115419;27;20020;-79
2022/08/23 03:37:31;;;;;;;34.72;31.17;;;;;;;;;;5090868;28;20475;-78
2022/08/23 03:39:57;;;;;;;35.13;31.45;;;;;;;;;;5093163;28;20024;-81
2022/08/23 03:42:24;;;;;;;34.67;31.17;;;;;;;;;;5125105;27;20023;-78
2022/08/23 03:44:50;;;;;;;33.10;27.23;;;;;;;;;;5109069;27;20017;-79
2022/08/23 03:47:16;;;;;;;32.25;28.95;;;;;;;;;;5120961;27;20024;-78
2022/08/23 03:49:42;;;;;;;31.90;27.83;;;;;;;;;;5099239;28;20016;-79
2022/08/23 03:52:10;;;;;;;27.77;24.08;;;;;;;;;;5100970;28;20032;-81
2022/08/23 03:54:36;;;;;;;26.10;23.35;;;;;;;;;;5126721;27;20024;-80
2022/08/23 03:57:03;;;;;;;26.73;23.90;;;;;;;;;;5127240;27;20471;-80
2022/08/23 03:59:31;;;;;;;27.10;24.27;;;;;;;;;;5126669;27;20035;-80
2022/08/23 04:01:57;;;;;;;24.90;22.33;;;;;;;;;;5126716;27;20020;-81
2022/08/23 04:04:23;;;;;;;25.70;23.20;;;;;;;;;;5092427;28;20479;-80
2022/08/23 04:06:49;;;;;;;24.48;21.98;;;;;;;;;;5092883;28;20045;-79
2022/08/23 04:09:16;;;;;;;23.73;21.42;;;;;;;;;;5106299;28;20019;-80
2022/08/23 04:11:42;;;;;;;22.85;19.48;;;;;;;;;;5092989;28;20028;-78
2022/08/23 04:14:09;;;;;;;18.95;17.15;;;;;;;;;;5122194;27;20025;-79
2022/08/23 04:16:39;;;;;;;20.40;17.30;;;;;;;;;;5114876;27;20103;-78
2022/08/23 04:19:09;;;;;;;22.20;17.27;;;;;;;;;;5091717;28;20055;-79
2022/08/23 04:21:36;;;;;;;20.05;16.65;;;;;;;;;;5091580;28;20044;-78
2022/08/23 04:24:02;;;;;;;17.75;15.77;;;;;;;;;;5078333;28;20023;-78
2022/08/23 04:26:28;;;;;;;20.02;15.98;;;;;;;;;;5083726;28;20043;-79
2022/08/23 04:28:54;;;;;;;19.55;17.55;;;;;;;;;;5082947;28;20467;-79
2022/08/23 04:31:20;;;;;;;18.05;14.43;;;;;;;;;;5125678;27;20023;-79
2022/08/23 04:33:46;;;;;;;17.80;14.63;;;;;;;;;;5111670;27;20090;-79
2022/08/23 04:36:12;;;;;;;17.65;12.60;;;;;;;;;;5118702;27;20017;-78
2022/08/23 04:38:39;;;;;;;17.70;13.48;;;;;;;;;;5118484;27;20088;-78
2022/08/23 04:43:49;;;;;;;15.75;14.25;;;;;;;;;;5092616;28;20035;-80
2022/08/23 04:46:16;;;;;;;16.02;14.43;;;;;;;;;;5091069;28;20008;-81
2022/08/23 04:48:43;;;;;;;15.35;13.52;;;;;;;;;;5092519;28;20069;-82
2022/08/23 04:51:09;;;;;;;20.73;16.50;;;;;;;;;;5091495;28;20016;-80
2022/08/23 04:53:35;;;;;;;17.05;15.25;;;;;;;;;;5101966;28;20028;-79
2022/08/23 04:56:03;;;;;;;19.15;14.13;;;;;;;;;;5090921;28;20061;-79
2022/08/23 04:58:30;;;;;;;12.05;10.93;;;;;;;;;;5116940;27;20021;-79
2022/08/23 05:00:57;;;;;;;15.02;12.02;;;;;;;;;;5086003;28;20024;-82
2022/08/23 05:03:23;;;;;;;17.15;13.40;;;;;;;;;;5091754;28;20111;-82
2022/08/23 05:05:50;;;;;;;16.05;14.13;;;;;;;;;;5112619;27;20419;-79
2022/08/23 05:08:16;;;;;;;25.95;14.05;;;;;;;;;;5090306;28;20020;-79
2022/08/23 05:10:42;;;;;;;16.92;12.38;;;;;;;;;;5125669;27;20029;-82
2022/08/23 05:13:08;;;;;;;15.05;13.52;;;;;;;;;;5115482;27;20036;-81
2022/08/23 05:15:34;;;;;;;13.77;12.40;;;;;;;;;;5102874;28;20043;-79
2022/08/23 05:18:00;;;;;;;14.43;13.02;;;;;;;;;;5091319;28;20024;-79
2022/08/23 05:20:26;;;;;;;13.23;11.93;;;;;;;;;;5111080;27;20108;-84
2022/08/23 05:22:53;;;;;;;19.33;13.75;;;;;;;;;;5125349;27;20048;-79
2022/08/23 05:25:19;;;;;;;16.23;14.15;;;;;;;;;;5125288;27;20024;-80
2022/08/23 05:27:45;;;;;;;17.67;14.88;;;;;;;;;;5143270;27;20017;-80
2022/08/23 05:30:12;;;;;;;20.27;16.30;;;;;;;;;;5081889;28;20028;-80
2022/08/23 05:32:38;;;;;;;17.83;14.57;;;;;;;;;;5131064;27;20058;-80
2022/08/23 05:35:05;;;;;;;16.13;14.40;;;;;;;;;;5105752;28;20020;-80
2022/08/23 05:37:31;;;;;;;19.48;15.50;;;;;;;;;;5128794;27;20020;-82
2022/08/23 05:39:57;;;;;;;13.75;12.35;;;;;;;;;;5112307;27;20023;-83
2022/08/23 05:42:23;;;;;;;17.63;14.68;;;;;;;;;;5110832;27;20146;-82
2022/08/23 05:44:49;;;;;;;16.00;13.63;;;;;;;;;;5132119;27;20024;-81
2022/08/23 05:47:16;;;;;;;15.13;13.15;;;;;;;;;;5097017;28;20032;-78
2022/08/23 05:49:42;;;;;;;18.20;14.18;;;;;;;;;;5092769;28;20032;-77
2022/08/23 05:52:12;;;;;;;19.42;14.60;;;;;;;;;;5097782;28;20038;-77
2022/08/23 05:54:38;;;;;;;15.30;13.68;;;;;;;;;;5097970;28;20506;-77
2022/08/23 05:57:04;;;;;;;16.10;14.48;;;;;;;;;;5097752;28;20059;-77
2022/08/23 05:59:30;;;;;;;18.02;14.48;;;;;;;;;;5089403;28;20046;-76
2022/08/23 06:01:56;;;;;;;16.70;14.40;;;;;;;;;;5124657;27;20020;-76
2022/08/23 06:04:22;;;;;;;16.02;14.50;;;;;;;;;;5084530;28;20478;-76
2022/08/23 06:06:48;;;;;;;15.98;14.05;;;;;;;;;;5098269;28;20016;-76
2022/08/23 06:09:15;;;;;;;15.57;14.02;;;;;;;;;;5130962;27;20051;-77
2022/08/23 06:11:43;;;;;;;16.13;14.30;;;;;;;;;;5097832;28;20152;-77
2022/08/23 06:14:09;;;;;;;18.25;15.63;;;;;;;;;;5083511;28;20020;-76
2022/08/23 06:16:36;;;;;;;16.08;13.90;;;;;;;;;;5119920;27;20073;-77
2022/08/23 06:19:03;;;;;;;19.70;16.95;;;;;;;;;;5112388;27;20059;-76
2022/08/23 06:21:30;;;;;;;21.00;18.95;;;;;;;;;;5097193;28;20056;-77
2022/08/23 06:23:56;;;;;;;20.08;17.55;;;;;;;;;;5096326;28;20068;-76
2022/08/23 06:26:24;;;;;;;21.30;19.13;;;;;;;;;;5083923;28;20020;-76
2022/08/23 06:28:51;;;;;;;22.40;19.52;;;;;;;;;;5104831;28;20028;-77
2022/08/23 06:31:43;;;;;;;16.98;15.27;;;;;;;;;;5095946;28;20044;-77
2022/08/23 06:34:06;;;;;;;19.77;16.55;;;;;;;;;;5094227;28;20020;-76
2022/08/23 06:36:32;;;;;;;20.33;18.17;;;;;;;;;;5097879;28;20190;-76
2022/08/23 06:38:59;;;;;;;16.88;15.20;;;;;;;;;;5097310;28;20016;-76
2022/08/23 06:41:25;;;;;;;18.27;16.23;;;;;;;;;;5096082;28;20467;-75
2022/08/23 06:43:51;;;;;;;18.27;16.15;;;;;;;;;;5097572;28;20459;-75
2022/08/23 06:46:19;;;;;;;23.00;17.35;;;;;;;;;;5091391;28;20097;-75
2022/08/23 06:48:46;;;;;;;26.08;17.52;;;;;;;;;;5086469;28;20024;-76
2022/08/23 06:51:12;;;;;;;17.75;13.85;;;;;;;;;;5126547;27;20012;-78
2022/08/23 06:53:38;;;;;;;19.30;15.75;;;;;;;;;;5126672;27;20056;-77
2022/08/23 06:56:05;;;;;;;17.65;15.13;;;;;;;;;;5094141;28;20467;-77
2022/08/23 06:58:31;;;;;;;15.88;14.25;;;;;;;;;;5093996;28;20032;-75
2022/08/23 07:01:08;;;;;;;20.75;16.40;;;;;;;;;;5093829;28;20027;-76
2022/08/23 07:03:34;;;;;;;21.75;19.45;;;;;;;;;;5093526;28;20095;-76
2022/08/23 07:06:00;;;;;;;17.20;15.43;;;;;;;;;;5093067;28;20055;-78
2022/08/23 07:08:27;;;;;;;14.15;12.68;;;;;;;;;;5126085;27;20020;-75
2022/08/23 07:10:55;;;;;;;16.42;14.73;;;;;;;;;;5093719;28;20027;-76
2022/08/23 07:13:21;;;;;;;17.48;15.68;;;;;;;;;;5093504;28;20036;-78
2022/08/23 07:15:47;;;;;;;17.50;15.80;;;;;;;;;;5126409;27;20016;-78
2022/08/23 07:18:14;;;;;;;18.77;16.90;;;;;;;;;;5092142;28;20028;-77
2022/08/23 07:20:40;;;;;;;20.70;16.50;;;;;;;;;;5091962;28;20024;-76
2022/08/23 07:23:06;;;;;;;24.88;18.92;;;;;;;;;;5126069;27;20484;-77
2022/08/23 07:25:32;;;;;;;24.95;19.20;;;;;;;;;;5093346;28;20077;-79
2022/08/23 07:27:58;;;;;;;21.90;18.58;;;;;;;;;;5088535;28;20017;-76
2022/08/23 07:30:24;;;;;;;28.58;23.38;;;;;;;;;;5090330;28;20035;-76
2022/08/23 07:32:50;;;;;;;25.52;22.77;;;;;;;;;;5126312;27;20060;-75
2022/08/23 07:35:16;;;;;;;23.40;17.63;;;;;;;;;;5112472;27;20483;-75
2022/08/23 07:37:42;;;;;;;23.05;18.00;;;;;;;;;;5091934;28;20513;-76
2022/08/23 07:40:09;;;;;;;30.60;23.38;;;;;;;;;;5091078;28;20524;-76
2022/08/23 07:42:35;;;;;;;20.92;15.70;;;;;;;;;;5091304;28;20027;-76
2022/08/23 07:45:02;;;;;;;16.25;12.93;;;;;;;;;;5092674;28;20023;-76
2022/08/23 07:47:29;;;;;;;17.70;14.40;;;;;;;;;;5091192;28;20024;-76
2022/08/23 07:49:55;;;;;;;17.52;15.32;;;;;;;;;;5087061;28;20017;-76
2022/08/23 07:52:21;;;;;;;19.60;16.40;;;;;;;;;;5102969;28;20119;-77
2022/08/23 07:54:47;;;;;;;21.70;17.00;;;;;;;;;;5088808;28;20073;-76
2022/08/23 07:57:13;;;;;;;20.38;17.20;;;;;;;;;;5089626;28;20059;-76
2022/08/23 07:59:39;;;;;;;20.38;15.70;;;;;;;;;;5092798;28;20105;-77
2022/08/23 08:02:06;;;;;;;22.27;17.05;;;;;;;;;;5092555;28;20103;-76
2022/08/23 08:04:32;;;;;;;21.58;17.35;;;;;;;;;;5092367;28;20020;-77
2022/08/23 08:06:59;;;;;;;22.05;17.42;;;;;;;;;;5088490;28;20025;-76
2022/08/23 08:09:25;;;;;;;21.88;17.33;;;;;;;;;;5091168;28;20024;-75
2022/08/23 08:11:51;;;;;;;17.85;15.95;;;;;;;;;;5119504;27;20439;-75
2022/08/23 08:14:17;;;;;;;19.35;16.27;;;;;;;;;;5124852;27;20149;-78
2022/08/23 08:16:45;;;;;;;25.13;19.63;;;;;;;;;;5091858;28;20022;-76
2022/08/23 08:19:13;;;;;;;24.35;17.38;;;;;;;;;;5088935;28;20039;-76
2022/08/23 08:21:40;;;;;;;30.77;19.27;;;;;;;;;;5088820;28;20098;-76
2022/08/23 08:24:07;;;;;;;28.00;18.02;;;;;;;;;;5124661;27;20024;-75
2022/08/23 08:26:33;;;;;;;21.67;18.83;;;;;;;;;;5092586;28;20472;-76
2022/08/23 08:28:59;;;;;;;22.10;17.40;;;;;;;;;;5095672;28;20108;-76
2022/08/23 08:31:26;;;;;;;16.38;14.63;;;;;;;;;;5093195;28;20059;-75
2022/08/23 08:33:52;;;;;;;17.38;15.52;;;;;;;;;;5124672;27;20028;-75
2022/08/23 08:36:29;;;;;;;17.83;15.65;;;;;;;;;;5091806;28;20035;-76
2022/08/23 08:38:55;;;;;;;18.83;15.25;;;;;;;;;;5092005;28;20024;-75
2022/08/23 08:41:37;;;;;;;15.07;13.05;;;;;;;;;;5124483;27;20020;-77
2022/08/23 08:44:03;;;;;;;18.05;15.48;;;;;;;;;;5105248;28;20035;-76
2022/08/23 08:46:44;;;;;;;16.98;14.90;;;;;;;;;;5091741;28;20016;-76
2022/08/23 08:49:13;;;;;;;20.35;16.08;;;;;;;;;;5088735;28;20182;-77
2022/08/23 08:51:39;;;;;;;18.40;15.13;;;;;;;;;;5089337;28;20371;-76
2022/08/23 08:54:07;;;;;;;12.82;11.25;;;;;;;;;;5091281;28;20544;-75
2022/08/23 08:56:34;;;;;;;17.92;14.20;;;;;;;;;;5090399;28;20024;-75
2022/08/23 08:59:02;;;;;;;15.73;13.00;;;;;;;;;;5086225;28;20021;-74
2022/08/23 09:01:29;;;;;;;19.27;13.35;;;;;;;;;;5081468;28;20128;-75
2022/08/23 09:03:56;;;;;;;16.25;14.15;;;;;;;;;;5091330;28;20023;-76
2022/08/23 09:06:25;;;;;;;17.95;13.23;;;;;;;;;;5123814;27;20093;-74
2022/08/23 09:09:09;;;;;;;18.77;15.43;;;;;;;;;;5089859;28;20065;-75
2022/08/23 09:11:41;;;;;;;20.65;18.42;;;;;;;;;;5105483;28;20073;-75
2022/08/23 09:14:14;;;;;;;18.60;15.07;;;;;;;;;;5090670;28;20016;-74
2022/08/23 09:16:49;;;;;;;15.85;14.27;;;;;;;;;;5121833;27;20027;-74
2022/08/23 09:19:16;;;;;;;16.38;12.95;;;;;;;;;;5091359;28;20043;-74
2022/08/23 09:21:47;;;;;;;16.65;12.95;;;;;;;;;;5090611;28;20051;-75
2022/08/23 09:24:14;;;;;;;14.75;12.82;;;;;;;;;;5088927;28;20475;-74
2022/08/23 09:26:40;;;;;;;13.88;12.25;;;;;;;;;;5091170;28;20081;-74
2022/08/23 09:29:26;;;;;;;14.00;12.23;;;;;;;;;;5090611;28;20062;-75
2022/08/23 09:31:54;;;;;;;15.13;13.35;;;;;;;;;;5097145;28;20109;-74
2022/08/23 09:34:24;;;;;;;14.73;12.60;;;;;;;;;;5123850;27;20017;-75
2022/08/23 09:36:50;;;;;;;14.52;12.27;;;;;;;;;;5123548;28;20016;-76
2022/08/23 09:39:28;;;;;;;13.50;10.27;;;;;;;;;;5089478;28;20391;-77
2022/08/23 09:41:54;;;;;;;12.18;10.52;;;;;;;;;;5090704;28;20066;-75
2022/08/23 09:44:33;;;;;;;11.80;9.60;;;;;;;;;;5089655;28;20027;-74
2022/08/23 09:47:25;;;;;;;9.43;8.23;;;;;;;;;;5090590;28;20521;-73
2022/08/23 09:49:51;;;;;;;11.15;8.43;;;;;;;;;;5074918;28;20050;-74
2022/08/23 09:52:32;;;;;;;11.32;8.85;;;;;;;;;;5089306;28;20028;-74
2022/08/23 09:55:01;;;;;;;11.80;8.38;;;;;;;;;;5082583;28;20023;-74
2022/08/23 09:57:29;;;;;;;14.23;9.60;;;;;;;;;;5090993;28;20043;-74
2022/08/23 09:59:56;;;;;;;10.15;9.00;;;;;;;;;;5092448;28;20491;-74
2022/08/23 10:02:25;;;;;;;15.05;10.07;;;;;;;;;;5090915;28;20050;-74
2022/08/23 10:04:56;;;;;;;16.17;11.13;;;;;;;;;;5089035;28;20017;-74
2022/08/23 10:07:40;;;;;;;13.35;9.35;;;;;;;;;;5079297;28;20028;-76
2022/08/23 10:10:24;;;;;;;13.27;9.50;;;;;;;;;;5089325;28;20056;-74
2022/08/23 10:12:52;;;;;;;11.75;8.18;;;;;;;;;;5082073;28;20036;-73
2022/08/23 10:15:20;;;;;;;10.18;9.00;;;;;;;;;;5123374;28;20024;-74
2022/08/23 10:17:48;;;;;;;9.95;8.40;;;;;;;;;;5091063;28;20016;-75
2022/08/23 10:20:27;;;;;;;13.00;7.38;;;;;;;;;;5092566;28;20027;-74
2022/08/23 10:23:12;;;;;;;13.30;8.35;;;;;;;;;;5085194;28;20127;-74
2022/08/23 10:25:50;;;;;;;9.95;8.68;;;;;;;;;;5111998;27;20479;-74
2022/08/23 10:31:13;;;;;;;10.52;8.45;;;;;;;;;;5100189;28;20151;-75
2022/08/23 10:33:46;;;;;;;12.95;9.43;;;;;;;;;;5080506;28;20028;-76
2022/08/23 10:36:15;;;;;;;11.40;9.27;;;;;;;;;;5079818;28;20043;-75
2022/08/23 10:38:45;;;;;;;10.98;9.07;;;;;;;;;;5094258;28;20016;-75
2022/08/23 10:41:20;;;;;;;14.80;8.32;;;;;;;;;;5087712;28;20111;-74
2022/08/23 10:43:52;;;;;;;10.02;8.23;;;;;;;;;;5115158;27;20487;-74
2022/08/23 10:46:21;;;;;;;12.70;7.72;;;;;;;;;;5079993;28;20046;-75
2022/08/23 10:48:53;;;;;;;10.80;8.65;;;;;;;;;;5093810;28;20020;-74
2022/08/23 10:51:26;;;;;;;9.02;7.63;;;;;;;;;;5092746;28;20034;-74
2022/08/23 10:53:59;;;;;;;9.67;8.10;;;;;;;;;;5092489;28;20067;-73
2022/08/23 10:56:26;;;;;;;10.18;8.88;;;;;;;;;;5086659;28;20028;-74
2022/08/23 10:58:52;;;;;;;10.43;9.05;;;;;;;;;;5112126;27;20028;-75
2022/08/23 11:01:23;;;;;;;11.13;8.43;;;;;;;;;;5122504;27;20020;-75
2022/08/23 11:03:49;;;;;;;8.30;7.20;;;;;;;;;;5093423;28;20028;-74
2022/08/23 11:06:30;;;;;;;8.38;6.82;;;;;;;;;;5093373;28;20020;-74
2022/08/23 11:09:05;;;;;;;8.90;7.80;;;;;;;;;;5093223;28;20024;-74
2022/08/23 11:12:02;;;;;;;10.55;7.35;;;;;;;;;;5093507;28;20527;-74
2022/08/23 11:14:38;;;;;;;9.48;7.90;;;;;;;;;;5080950;28;20024;-74
2022/08/23 11:17:06;;;;;;;10.77;7.57;;;;;;;;;;5092988;28;20027;-74
2022/08/23 11:20:06;;;;;;;7.72;6.60;;;;;;;;;;5080433;28;20031;-76
2022/08/23 11:23:10;;;;;;;6.50;5.60;;;;;;;;;;5087298;28;20499;-74
2022/08/23 11:25:36;;;;;;;7.72;6.93;;;;;;;;;;5070552;28;20024;-75
2022/08/23 11:28:21;;;;;;;7.00;6.03;;;;;;;;;;5056801;28;20111;-76
2022/08/23 11:30:48;;;;;;;7.43;6.28;;;;;;;;;;5077877;28;20039;-75
2022/08/23 11:33:31;;;;;;;7.60;6.80;;;;;;;;;;5087353;28;20085;-74
2022/08/23 11:36:10;;;;;;;8.98;7.10;;;;;;;;;;5125031;27;20072;-73
2022/08/23 11:38:48;;;;;;;8.23;6.40;;;;;;;;;;5120929;27;20021;-75
2022/08/23 11:41:14;;;;;;;9.13;7.38;;;;;;;;;;5091808;28;20111;-75
2022/08/23 11:43:42;;;;;;;7.97;7.00;;;;;;;;;;5091580;28;20012;-74
2022/08/23 11:46:13;;;;;;;9.20;7.70;;;;;;;;;;5092883;28;20024;-75
2022/08/23 11:48:40;;;;;;;8.88;7.43;;;;;;;;;;5089824;28;20031;-75
2022/08/23 11:51:18;;;;;;;8.57;7.72;;;;;;;;;;5092708;28;20517;-74
2022/08/23 11:53:54;;;;;;;11.13;8.32;;;;;;;;;;5119585;27;20048;-75
2022/08/23 11:56:38;;;;;;;10.50;8.65;;;;;;;;;;5092483;28;20096;-75
2022/08/23 11:59:23;;;;;;;10.15;9.13;;;;;;;;;;5092674;28;20035;-74
2022/08/23 12:01:49;;;;;;;9.98;8.98;;;;;;;;;;5088524;28;20070;-74
2022/08/23 12:04:34;;;;;;;10.27;9.25;;;;;;;;;;5083455;28;20024;-74
2022/08/23 12:07:02;;;;;;;10.57;9.50;;;;;;;;;;5117779;27;20020;-74
2022/08/23 12:09:28;;;;;;;11.07;9.68;;;;;;;;;;5091325;28;20028;-74
2022/08/23 12:11:54;;;;;;;10.85;9.75;;;;;;;;;;5112557;27;20514;-74
2022/08/23 12:14:48;;;;;;;12.20;10.02;;;;;;;;;;5122062;27;20025;-76
2022/08/23 12:17:19;;;;;;;13.57;10.73;;;;;;;;;;5082570;28;20068;-74
2022/08/23 12:19:46;;;;;;;14.10;12.60;;;;;;;;;;5090944;28;20056;-75
2022/08/23 12:22:14;;;;;;;16.48;14.88;;;;;;;;;;5091916;28;20131;-74
2022/08/23 12:24:52;;;;;;;17.48;15.75;;;;;;;;;;5124627;27;20021;-74
2022/08/23 12:27:38;;;;;;;20.40;18.20;;;;;;;;;;5089277;28;20487;-73
2022/08/23 12:30:09;;;;;;;19.90;17.80;;;;;;;;;;5076657;28;20043;-74
2022/08/23 12:32:38;;;;;;;21.23;18.77;;;;;;;;;;5093038;28;20392;-74
2022/08/23 12:35:20;;;;;;;21.00;18.88;;;;;;;;;;5085376;28;20101;-76
2022/08/23 12:37:50;;;;;;;20.48;18.38;;;;;;;;;;5090264;28;20499;-74
2022/08/23 12:40:22;;;;;;;21.17;17.85;;;;;;;;;;5091971;28;20016;-74
2022/08/23 12:42:50;;;;;;;18.60;16.75;;;;;;;;;;5123402;27;20154;-74
2022/08/23 12:45:16;;;;;;;19.85;17.75;;;;;;;;;;5124473;27;20391;-73
2022/08/23 12:47:43;;;;;;;20.83;18.63;;;;;;;;;;5090551;28;20481;-74
2022/08/23 12:50:15;;;;;;;21.90;19.35;;;;;;;;;;5089105;28;20050;-74
2022/08/23 12:52:41;;;;;;;21.13;18.90;;;;;;;;;;5089668;28;20081;-75
2022/08/23 12:55:17;;;;;;;21.67;18.70;;;;;;;;;;5077524;28;20361;-74
2022/08/23 12:57:44;;;;;;;21.83;18.15;;;;;;;;;;5089805;28;20347;-75
2022/08/23 13:00:42;;;;;;;19.90;16.55;;;;;;;;;;5090529;28;20821;-74
2022/08/23 13:03:17;;;;;;;19.13;17.00;;;;;;;;;;5074996;28;20117;-78
2022/08/23 13:05:48;;;;;;;19.15;15.30;;;;;;;;;;5123626;27;20024;-74
2022/08/23 13:08:17;;;;;;;19.13;16.17;;;;;;;;;;5090626;28;20024;-75
2022/08/23 13:10:44;;;;;;;20.02;17.38;;;;;;;;;;5090494;28;20024;-74
2022/08/23 13:13:11;;;;;;;16.98;13.75;;;;;;;;;;5123050;27;20514;-75
2022/08/23 13:15:48;;;;;;;21.20;15.07;;;;;;;;;;5118153;27;20031;-76
2022/08/23 13:18:25;;;;;;;19.92;13.88;;;;;;;;;;5090673;28;20020;-75
2022/08/23 13:21:09;;;;;;;17.15;13.85;;;;;;;;;;5090826;28;20058;-74
2022/08/23 13:23:35;;;;;;;19.95;12.18;;;;;;;;;;5089669;28;20047;-74
2022/08/23 13:26:21;;;;;;;18.55;13.52;;;;;;;;;;5122901;27;20035;-76
2022/08/23 13:29:00;;;;;;;14.88;12.15;;;;;;;;;;5090749;28;20179;-75
2022/08/23 13:31:46;;;;;;;10.95;9.43;;;;;;;;;;5123106;27;20027;-74
2022/08/23 13:34:30;;;;;;;11.77;9.93;;;;;;;;;;5096018;28;20036;-74
2022/08/23 13:37:03;;;;;;;11.73;9.45;;;;;;;;;;5084681;28;20097;-75
2022/08/23 13:39:30;;;;;;;21.40;12.73;;;;;;;;;;5088100;28;20028;-75
2022/08/23 13:41:56;;;;;;;11.68;9.85;;;;;;;;;;5088082;28;20024;-77
2022/08/23 13:44:24;;;;;;;13.00;11.23;;;;;;;;;;5087357;28;20086;-75
2022/08/23 13:46:50;;;;;;;9.70;8.70;;;;;;;;;;5084799;28;20447;-75
2022/08/23 13:49:26;;;;;;;8.55;7.53;;;;;;;;;;5089762;28;20016;-76
2022/08/23 13:52:01;;;;;;;12.93;9.60;;;;;;;;;;5081298;28;20120;-78
2022/08/23 13:54:28;;;;;;;8.60;7.57;;;;;;;;;;5083957;28;20039;-76
2022/08/23 13:57:01;;;;;;;9.38;7.03;;;;;;;;;;5093130;28;20020;-75
2022/08/23 13:59:34;;;;;;;11.57;8.13;;;;;;;;;;5090747;28;20114;-74
2022/08/23 14:02:02;;;;;;;15.70;14.20;;;;;;;;;;5088560;28;20020;-75
2022/08/23 14:04:28;;;;;;;11.32;8.40;;;;;;;;;;5094099;28;20248;-75
2022/08/23 14:06:54;;;;;;;8.73;7.13;;;;;;;;;;5126711;27;20057;-74
2022/08/23 14:09:20;;;;;;;6.97;5.82;;;;;;;;;;5094010;28;20012;-74
2022/08/23 14:11:48;;;;;;;7.65;6.15;;;;;;;;;;5090674;28;20028;-76
2022/08/23 14:14:14;;;;;;;13.55;7.57;;;;;;;;;;5089564;28;20099;-76
2022/08/23 14:16:41;;;;;;;5.55;4.65;;;;;;;;;;5113931;27;20429;-77
2022/08/23 14:19:08;;;;;;;14.40;6.50;;;;;;;;;;5091363;28;20394;-74
2022/08/23 14:21:35;;;;;;;9.85;6.07;;;;;;;;;;5093558;28;20151;-74
2022/08/23 14:24:01;;;;;;;11.88;8.70;;;;;;;;;;5090037;28;20027;-76
2022/08/23 14:26:27;;;;;;;8.02;6.50;;;;;;;;;;5089960;28;20024;-76
2022/08/23 14:28:53;;;;;;;9.27;7.55;;;;;;;;;;5090415;28;20031;-77
2022/08/23 14:31:19;;;;;;;12.52;8.13;;;;;;;;;;5119713;27;20101;-77
2022/08/23 14:33:46;;;;;;;11.63;9.23;;;;;;;;;;5100106;28;20309;-77
2022/08/23 14:36:12;;;;;;;10.50;8.18;;;;;;;;;;5092068;28;20020;-76
2022/08/23 14:38:39;;;;;;;8.63;7.72;;;;;;;;;;5087700;28;20028;-76
2022/08/23 14:41:15;;;;;;;10.98;9.73;;;;;;;;;;5092309;28;20021;-76
2022/08/23 14:43:41;;;;;;;10.65;9.48;;;;;;;;;;5114923;27;20073;-77
2022/08/23 14:46:07;;;;;;;10.70;9.60;;;;;;;;;;5092360;28;20012;-78